sensor_id;sensor_type;location;lat;lon;timestamp;temperature;humidity
53876;DHT22;39789;53.216;5.624;2023-08-06T00:00:13;13.60;99.90
53876;DHT22;39789;53.216;5.624;2023-08-06T00:02:39;13.60;99.90
53876;DHT22;39789;53.216;5.624;2023-08-06T00:05:05;13.60;99.90
53876;DHT22;39789;53.216;5.624;2023-08-06T00:07:30;13.60;99.90
53876;DHT22;39789;53.216;5.624;2023-08-06T00:09:56;14.20;99.90
53876;DHT22;39789;53.216;5.624;2023-08-06T00:12:22;13.60;99.90
53876;DHT22;39789;53.216;5.624;2023-08-06T00:14:52;13.60;99.90
53876;DHT22;39789;53.216;5.624;2023-08-06T00:17:18;13.60;99.90
53876;DHT22;39789;53.216;5.624;2023-08-06T00:19:44;13.60;99.90
53876;DHT22;39789;53.216;5.624;2023-08-06T00:22:09;13.60;99.90
53876;DHT22;39789;53.216;5.624;2023-08-06T00:24:35;13.60;99.90
53876;DHT22;39789;53.216;5.624;2023-08-06T00:27:01;13.60;99.90
53876;DHT22;39789;53.216;5.624;2023-08-06T00:29:27;13.60;99.90
53876;DHT22;39789;53.216;5.624;2023-08-06T00:31:53;13.60;99.90
53876;DHT22;39789;53.216;5.624;2023-08-06T00:34:19;13.60;99.90
53876;DHT22;39789;53.216;5.624;2023-08-06T00:36:44;13.60;99.90
53876;DHT22;39789;53.216;5.624;2023-08-06T00:39:10;13.60;99.90
53876;DHT22;39789;53.216;5.624;2023-08-06T00:41:36;13.60;99.90
53876;DHT22;39789;53.216;5.624;2023-08-06T00:44:02;13.60;99.90
53876;DHT22;39789;53.216;5.624;2023-08-06T00:46:27;13.60;99.90
53876;DHT22;39789;53.216;5.624;2023-08-06T00:48:54;13.60;99.90
53876;DHT22;39789;53.216;5.624;2023-08-06T00:51:20;13.60;99.90
53876;DHT22;39789;53.216;5.624;2023-08-06T00:53:46;13.60;99.90
53876;DHT22;39789;53.216;5.624;2023-08-06T00:56:12;13.60;99.90
53876;DHT22;39789;53.216;5.624;2023-08-06T00:58:39;13.60;99.90
53876;DHT22;39789;53.216;5.624;2023-08-06T01:01:05;13.60;99.90
53876;DHT22;39789;53.216;5.624;2023-08-06T01:03:31;13.60;99.90
53876;DHT22;39789;53.216;5.624;2023-08-06T01:05:57;13.60;99.90
53876;DHT22;39789;53.216;5.624;2023-08-06T01:08:38;13.60;99.90
53876;DHT22;39789;53.216;5.624;2023-08-06T01:11:26;13.70;99.90
53876;DHT22;39789;53.216;5.624;2023-08-06T01:14:02;13.70;99.90
53876;DHT22;39789;53.216;5.624;2023-08-06T01:16:30;13.70;99.90
53876;DHT22;39789;53.216;5.624;2023-08-06T01:18:58;13.70;99.90
53876;DHT22;39789;53.216;5.624;2023-08-06T01:21:23;13.70;99.90
53876;DHT22;39789;53.216;5.624;2023-08-06T01:23:49;13.70;99.90
53876;DHT22;39789;53.216;5.624;2023-08-06T01:29:10;13.70;99.90
53876;DHT22;39789;53.216;5.624;2023-08-06T01:31:39;13.70;99.90
53876;DHT22;39789;53.216;5.624;2023-08-06T01:34:09;13.70;99.90
53876;DHT22;39789;53.216;5.624;2023-08-06T01:36:35;13.80;99.90
53876;DHT22;39789;53.216;5.624;2023-08-06T01:39:01;13.80;99.90
53876;DHT22;39789;53.216;5.624;2023-08-06T01:41:27;13.80;99.90
53876;DHT22;39789;53.216;5.624;2023-08-06T01:43:52;13.80;99.90
53876;DHT22;39789;53.216;5.624;2023-08-06T01:46:18;13.80;99.90
53876;DHT22;39789;53.216;5.624;2023-08-06T01:48:43;13.80;99.90
53876;DHT22;39789;53.216;5.624;2023-08-06T01:51:09;13.70;99.90
53876;DHT22;39789;53.216;5.624;2023-08-06T01:53:35;13.80;99.90
53876;DHT22;39789;53.216;5.624;2023-08-06T01:56:00;13.80;99.90
53876;DHT22;39789;53.216;5.624;2023-08-06T01:58:26;13.80;99.90
53876;DHT22;39789;53.216;5.624;2023-08-06T02:00:51;13.70;99.90
53876;DHT22;39789;53.216;5.624;2023-08-06T02:03:17;13.80;99.90
53876;DHT22;39789;53.216;5.624;2023-08-06T02:05:42;13.80;99.90
53876;DHT22;39789;53.216;5.624;2023-08-06T02:08:08;13.80;99.90
53876;DHT22;39789;53.216;5.624;2023-08-06T02:10:34;13.80;99.90
53876;DHT22;39789;53.216;5.624;2023-08-06T02:13:00;13.80;99.90
53876;DHT22;39789;53.216;5.624;2023-08-06T02:15:25;13.80;99.90
53876;DHT22;39789;53.216;5.624;2023-08-06T02:17:51;13.80;99.90
53876;DHT22;39789;53.216;5.624;2023-08-06T02:20:16;13.80;99.90
53876;DHT22;39789;53.216;5.624;2023-08-06T02:22:42;13.80;99.90
53876;DHT22;39789;53.216;5.624;2023-08-06T02:25:08;13.80;99.90
53876;DHT22;39789;53.216;5.624;2023-08-06T02:27:33;13.80;99.90
53876;DHT22;39789;53.216;5.624;2023-08-06T02:29:59;13.70;99.90
53876;DHT22;39789;53.216;5.624;2023-08-06T02:32:24;13.70;99.90
53876;DHT22;39789;53.216;5.624;2023-08-06T02:34:50;13.70;99.90
53876;DHT22;39789;53.216;5.624;2023-08-06T02:37:15;13.70;99.90
53876;DHT22;39789;53.216;5.624;2023-08-06T02:39:41;13.70;99.90
53876;DHT22;39789;53.216;5.624;2023-08-06T02:42:07;13.60;99.90
53876;DHT22;39789;53.216;5.624;2023-08-06T02:44:33;13.60;99.90
53876;DHT22;39789;53.216;5.624;2023-08-06T02:46:59;13.50;99.90
53876;DHT22;39789;53.216;5.624;2023-08-06T02:49:25;13.50;99.90
53876;DHT22;39789;53.216;5.624;2023-08-06T02:51:51;13.50;99.90
53876;DHT22;39789;53.216;5.624;2023-08-06T02:54:20;13.50;99.90
53876;DHT22;39789;53.216;5.624;2023-08-06T02:56:46;13.40;99.90
53876;DHT22;39789;53.216;5.624;2023-08-06T02:59:14;13.40;99.90
53876;DHT22;39789;53.216;5.624;2023-08-06T03:01:40;13.40;99.90
53876;DHT22;39789;53.216;5.624;2023-08-06T03:04:05;13.40;99.90
53876;DHT22;39789;53.216;5.624;2023-08-06T03:06:31;13.40;99.90
53876;DHT22;39789;53.216;5.624;2023-08-06T03:08:57;13.50;99.90
53876;DHT22;39789;53.216;5.624;2023-08-06T03:11:23;13.40;99.90
53876;DHT22;39789;53.216;5.624;2023-08-06T03:13:48;13.50;99.90
53876;DHT22;39789;53.216;5.624;2023-08-06T03:16:14;13.50;99.90
53876;DHT22;39789;53.216;5.624;2023-08-06T03:18:40;13.50;99.90
53876;DHT22;39789;53.216;5.624;2023-08-06T03:21:05;13.50;99.90
53876;DHT22;39789;53.216;5.624;2023-08-06T03:23:31;13.50;99.90
53876;DHT22;39789;53.216;5.624;2023-08-06T03:26:03;14.50;99.90
53876;DHT22;39789;53.216;5.624;2023-08-06T03:28:29;13.60;99.90
53876;DHT22;39789;53.216;5.624;2023-08-06T03:31:02;13.60;99.90
53876;DHT22;39789;53.216;5.624;2023-08-06T03:33:28;13.60;99.90
53876;DHT22;39789;53.216;5.624;2023-08-06T03:35:54;13.70;99.90
53876;DHT22;39789;53.216;5.624;2023-08-06T03:38:20;13.70;99.90
53876;DHT22;39789;53.216;5.624;2023-08-06T03:40:49;13.70;99.90
53876;DHT22;39789;53.216;5.624;2023-08-06T03:43:15;13.70;99.90
53876;DHT22;39789;53.216;5.624;2023-08-06T03:45:40;13.70;99.90
53876;DHT22;39789;53.216;5.624;2023-08-06T03:48:06;13.70;99.90
53876;DHT22;39789;53.216;5.624;2023-08-06T03:50:32;13.70;99.90
53876;DHT22;39789;53.216;5.624;2023-08-06T03:52:58;13.80;99.90
53876;DHT22;39789;53.216;5.624;2023-08-06T03:55:23;13.70;99.90
53876;DHT22;39789;53.216;5.624;2023-08-06T03:57:49;13.80;99.90
53876;DHT22;39789;53.216;5.624;2023-08-06T04:00:14;13.80;99.90
53876;DHT22;39789;53.216;5.624;2023-08-06T04:02:40;13.80;99.90
53876;DHT22;39789;53.216;5.624;2023-08-06T04:05:06;13.80;99.90
53876;DHT22;39789;53.216;5.624;2023-08-06T04:07:31;13.80;99.90
53876;DHT22;39789;53.216;5.624;2023-08-06T04:09:59;13.80;99.90
53876;DHT22;39789;53.216;5.624;2023-08-06T04:12:25;13.80;99.90
53876;DHT22;39789;53.216;5.624;2023-08-06T04:14:51;13.80;99.90
53876;DHT22;39789;53.216;5.624;2023-08-06T04:17:20;13.80;99.90
53876;DHT22;39789;53.216;5.624;2023-08-06T04:19:47;13.80;99.90
53876;DHT22;39789;53.216;5.624;2023-08-06T04:22:13;13.90;99.90
53876;DHT22;39789;53.216;5.624;2023-08-06T04:24:39;13.90;99.90
53876;DHT22;39789;53.216;5.624;2023-08-06T04:27:04;13.90;99.90
53876;DHT22;39789;53.216;5.624;2023-08-06T04:29:30;13.90;99.90
53876;DHT22;39789;53.216;5.624;2023-08-06T04:31:55;13.90;99.90
53876;DHT22;39789;53.216;5.624;2023-08-06T04:34:21;13.90;99.90
53876;DHT22;39789;53.216;5.624;2023-08-06T04:36:48;13.90;99.90
53876;DHT22;39789;53.216;5.624;2023-08-06T04:39:13;13.90;99.90
53876;DHT22;39789;53.216;5.624;2023-08-06T04:41:39;13.90;99.90
53876;DHT22;39789;53.216;5.624;2023-08-06T04:44:04;14.00;99.90
53876;DHT22;39789;53.216;5.624;2023-08-06T04:46:30;14.00;99.90
53876;DHT22;39789;53.216;5.624;2023-08-06T04:48:55;14.00;99.90
53876;DHT22;39789;53.216;5.624;2023-08-06T04:51:21;14.00;99.90
53876;DHT22;39789;53.216;5.624;2023-08-06T04:53:47;14.00;99.90
53876;DHT22;39789;53.216;5.624;2023-08-06T04:56:12;14.00;99.90
53876;DHT22;39789;53.216;5.624;2023-08-06T04:58:38;14.00;99.90
53876;DHT22;39789;53.216;5.624;2023-08-06T05:01:03;14.00;99.90
53876;DHT22;39789;53.216;5.624;2023-08-06T05:03:29;14.10;99.90
53876;DHT22;39789;53.216;5.624;2023-08-06T05:05:54;14.00;99.90
53876;DHT22;39789;53.216;5.624;2023-08-06T05:08:20;14.10;99.90
53876;DHT22;39789;53.216;5.624;2023-08-06T05:10:46;14.10;99.90
53876;DHT22;39789;53.216;5.624;2023-08-06T05:13:12;14.10;99.90
53876;DHT22;39789;53.216;5.624;2023-08-06T05:15:37;14.10;99.90
53876;DHT22;39789;53.216;5.624;2023-08-06T05:18:05;14.10;99.90
53876;DHT22;39789;53.216;5.624;2023-08-06T05:20:30;14.20;99.90
53876;DHT22;39789;53.216;5.624;2023-08-06T05:22:56;14.20;99.90
53876;DHT22;39789;53.216;5.624;2023-08-06T05:25:21;14.20;99.90
53876;DHT22;39789;53.216;5.624;2023-08-06T05:27:47;14.30;99.90
53876;DHT22;39789;53.216;5.624;2023-08-06T05:30:12;14.20;99.90
53876;DHT22;39789;53.216;5.624;2023-08-06T05:32:38;14.30;99.90
53876;DHT22;39789;53.216;5.624;2023-08-06T05:35:04;14.30;99.90
53876;DHT22;39789;53.216;5.624;2023-08-06T05:37:29;14.30;99.90
53876;DHT22;39789;53.216;5.624;2023-08-06T05:39:55;14.40;99.90
53876;DHT22;39789;53.216;5.624;2023-08-06T05:42:21;14.40;99.90
53876;DHT22;39789;53.216;5.624;2023-08-06T05:44:46;14.40;99.90
53876;DHT22;39789;53.216;5.624;2023-08-06T05:47:12;14.40;99.90
53876;DHT22;39789;53.216;5.624;2023-08-06T05:49:37;14.40;99.90
53876;DHT22;39789;53.216;5.624;2023-08-06T05:52:03;14.40;99.90
53876;DHT22;39789;53.216;5.624;2023-08-06T05:54:31;14.40;99.90
53876;DHT22;39789;53.216;5.624;2023-08-06T05:56:57;14.50;99.90
53876;DHT22;39789;53.216;5.624;2023-08-06T05:59:22;14.50;99.90
53876;DHT22;39789;53.216;5.624;2023-08-06T06:01:48;14.50;99.90
53876;DHT22;39789;53.216;5.624;2023-08-06T06:04:14;14.50;99.90
53876;DHT22;39789;53.216;5.624;2023-08-06T06:06:39;14.60;99.90
53876;DHT22;39789;53.216;5.624;2023-08-06T06:09:07;14.50;99.90
53876;DHT22;39789;53.216;5.624;2023-08-06T06:11:32;14.60;99.90
53876;DHT22;39789;53.216;5.624;2023-08-06T06:13:58;14.60;99.90
53876;DHT22;39789;53.216;5.624;2023-08-06T06:16:23;14.60;99.90
53876;DHT22;39789;53.216;5.624;2023-08-06T06:18:49;14.60;99.90
53876;DHT22;39789;53.216;5.624;2023-08-06T06:21:15;14.70;99.90
53876;DHT22;39789;53.216;5.624;2023-08-06T06:23:40;15.30;99.90
53876;DHT22;39789;53.216;5.624;2023-08-06T06:26:06;14.70;99.90
53876;DHT22;39789;53.216;5.624;2023-08-06T06:28:32;14.80;99.90
53876;DHT22;39789;53.216;5.624;2023-08-06T06:31:02;14.90;99.90
53876;DHT22;39789;53.216;5.624;2023-08-06T06:33:28;14.90;99.90
53876;DHT22;39789;53.216;5.624;2023-08-06T06:35:56;14.90;99.90
53876;DHT22;39789;53.216;5.624;2023-08-06T06:38:33;16.40;99.90
53876;DHT22;39789;53.216;5.624;2023-08-06T06:41:05;14.20;99.90
53876;DHT22;39789;53.216;5.624;2023-08-06T06:43:40;14.10;99.90
53876;DHT22;39789;53.216;5.624;2023-08-06T06:46:06;15.70;99.90
53876;DHT22;39789;53.216;5.624;2023-08-06T06:48:32;15.10;99.90
53876;DHT22;39789;53.216;5.624;2023-08-06T06:50:58;15.00;99.90
53876;DHT22;39789;53.216;5.624;2023-08-06T06:53:25;15.00;99.90
53876;DHT22;39789;53.216;5.624;2023-08-06T06:56:03;15.30;99.90
53876;DHT22;39789;53.216;5.624;2023-08-06T06:58:29;15.20;99.90
53876;DHT22;39789;53.216;5.624;2023-08-06T07:00:55;15.20;99.90
53876;DHT22;39789;53.216;5.624;2023-08-06T07:03:20;15.30;99.90
53876;DHT22;39789;53.216;5.624;2023-08-06T07:05:46;15.40;99.90
53876;DHT22;39789;53.216;5.624;2023-08-06T07:08:12;15.50;99.90
53876;DHT22;39789;53.216;5.624;2023-08-06T07:10:38;15.50;99.90
53876;DHT22;39789;53.216;5.624;2023-08-06T07:13:03;15.60;99.90
53876;DHT22;39789;53.216;5.624;2023-08-06T07:15:29;15.70;99.90
53876;DHT22;39789;53.216;5.624;2023-08-06T07:17:55;15.70;99.90
53876;DHT22;39789;53.216;5.624;2023-08-06T07:20:20;16.40;99.90
53876;DHT22;39789;53.216;5.624;2023-08-06T07:22:46;16.20;99.90
53876;DHT22;39789;53.216;5.624;2023-08-06T07:25:13;15.80;99.90
53876;DHT22;39789;53.216;5.624;2023-08-06T07:27:39;15.80;99.90
53876;DHT22;39789;53.216;5.624;2023-08-06T07:30:05;15.90;99.90
53876;DHT22;39789;53.216;5.624;2023-08-06T07:32:31;16.00;99.90
53876;DHT22;39789;53.216;5.624;2023-08-06T07:34:57;16.10;99.90
53876;DHT22;39789;53.216;5.624;2023-08-06T07:37:26;16.10;99.90
53876;DHT22;39789;53.216;5.624;2023-08-06T07:39:54;16.30;99.90
53876;DHT22;39789;53.216;5.624;2023-08-06T07:42:22;17.10;99.90
53876;DHT22;39789;53.216;5.624;2023-08-06T07:44:53;16.40;99.90
53876;DHT22;39789;53.216;5.624;2023-08-06T07:47:22;17.30;99.90
53876;DHT22;39789;53.216;5.624;2023-08-06T07:49:54;16.50;99.90
53876;DHT22;39789;53.216;5.624;2023-08-06T07:52:23;16.60;99.90
53876;DHT22;39789;53.216;5.624;2023-08-06T07:54:48;17.40;99.90
53876;DHT22;39789;53.216;5.624;2023-08-06T07:57:14;16.50;99.90
53876;DHT22;39789;53.216;5.624;2023-08-06T07:59:41;16.70;99.90
53876;DHT22;39789;53.216;5.624;2023-08-06T08:02:06;17.00;99.90
53876;DHT22;39789;53.216;5.624;2023-08-06T08:04:32;17.00;99.90
53876;DHT22;39789;53.216;5.624;2023-08-06T08:06:57;17.20;99.90
53876;DHT22;39789;53.216;5.624;2023-08-06T08:09:29;16.90;99.90
53876;DHT22;39789;53.216;5.624;2023-08-06T08:11:56;16.70;99.90
53876;DHT22;39789;53.216;5.624;2023-08-06T08:14:22;16.80;99.90
53876;DHT22;39789;53.216;5.624;2023-08-06T08:16:48;16.90;99.90
53876;DHT22;39789;53.216;5.624;2023-08-06T08:19:14;17.80;99.90
53876;DHT22;39789;53.216;5.624;2023-08-06T08:21:40;18.00;99.90
53876;DHT22;39789;53.216;5.624;2023-08-06T08:24:05;16.60;99.90
53876;DHT22;39789;53.216;5.624;2023-08-06T08:26:31;18.00;99.90
53876;DHT22;39789;53.216;5.624;2023-08-06T08:28:57;18.20;99.90
53876;DHT22;39789;53.216;5.624;2023-08-06T08:31:22;18.30;99.90
53876;DHT22;39789;53.216;5.624;2023-08-06T08:33:48;17.30;99.90
53876;DHT22;39789;53.216;5.624;2023-08-06T08:36:13;17.40;99.90
53876;DHT22;39789;53.216;5.624;2023-08-06T08:38:39;17.50;99.90
53876;DHT22;39789;53.216;5.624;2023-08-06T08:41:05;17.60;99.90
53876;DHT22;39789;53.216;5.624;2023-08-06T08:43:31;17.70;99.90
53876;DHT22;39789;53.216;5.624;2023-08-06T08:45:57;18.60;99.90
53876;DHT22;39789;53.216;5.624;2023-08-06T08:48:27;18.00;99.90
53876;DHT22;39789;53.216;5.624;2023-08-06T08:50:53;17.60;99.90
53876;DHT22;39789;53.216;5.624;2023-08-06T08:53:19;18.70;99.90
53876;DHT22;39789;53.216;5.624;2023-08-06T08:55:49;17.90;99.90
53876;DHT22;39789;53.216;5.624;2023-08-06T08:58:15;19.00;99.90
53876;DHT22;39789;53.216;5.624;2023-08-06T09:00:47;18.50;99.90
53876;DHT22;39789;53.216;5.624;2023-08-06T09:03:16;18.10;99.90
53876;DHT22;39789;53.216;5.624;2023-08-06T09:05:44;18.20;99.90
53876;DHT22;39789;53.216;5.624;2023-08-06T09:08:12;19.00;99.90
53876;DHT22;39789;53.216;5.624;2023-08-06T09:10:42;18.60;99.90
53876;DHT22;39789;53.216;5.624;2023-08-06T09:13:08;19.20;99.90
53876;DHT22;39789;53.216;5.624;2023-08-06T09:15:34;18.60;99.90
53876;DHT22;39789;53.216;5.624;2023-08-06T09:18:00;18.70;99.90
53876;DHT22;39789;53.216;5.624;2023-08-06T09:20:34;18.80;99.90
53876;DHT22;39789;53.216;5.624;2023-08-06T09:23:07;18.90;96.40
53876;DHT22;39789;53.216;5.624;2023-08-06T09:25:33;20.00;99.60
53876;DHT22;39789;53.216;5.624;2023-08-06T09:27:58;19.00;99.60
53876;DHT22;39789;53.216;5.624;2023-08-06T09:30:35;19.40;99.70
53876;DHT22;39789;53.216;5.624;2023-08-06T09:33:00;19.10;98.90
53876;DHT22;39789;53.216;5.624;2023-08-06T09:35:30;19.30;98.90
53876;DHT22;39789;53.216;5.624;2023-08-06T09:38:05;19.40;99.20
53876;DHT22;39789;53.216;5.624;2023-08-06T09:40:32;19.30;98.50
53876;DHT22;39789;53.216;5.624;2023-08-06T09:42:58;19.40;98.40
53876;DHT22;39789;53.216;5.624;2023-08-06T09:45:37;19.30;97.50
53876;DHT22;39789;53.216;5.624;2023-08-06T09:48:04;19.10;97.80
53876;DHT22;39789;53.216;5.624;2023-08-06T09:50:31;19.10;98.10
53876;DHT22;39789;53.216;5.624;2023-08-06T09:52:58;19.10;98.30
53876;DHT22;39789;53.216;5.624;2023-08-06T09:55:25;19.00;97.70
53876;DHT22;39789;53.216;5.624;2023-08-06T09:57:55;19.00;98.40
53876;DHT22;39789;53.216;5.624;2023-08-06T10:00:21;19.00;98.20
53876;DHT22;39789;53.216;5.624;2023-08-06T10:02:48;19.10;97.80
53876;DHT22;39789;53.216;5.624;2023-08-06T10:05:15;19.50;97.70
53876;DHT22;39789;53.216;5.624;2023-08-06T10:07:43;19.20;98.20
53876;DHT22;39789;53.216;5.624;2023-08-06T10:10:09;20.10;98.10
53876;DHT22;39789;53.216;5.624;2023-08-06T10:12:48;19.90;98.30
53876;DHT22;39789;53.216;5.624;2023-08-06T10:15:19;19.50;95.60
53876;DHT22;39789;53.216;5.624;2023-08-06T10:17:47;19.30;96.20
53876;DHT22;39789;53.216;5.624;2023-08-06T10:20:14;19.50;96.30
53876;DHT22;39789;53.216;5.624;2023-08-06T10:22:44;19.50;96.20
53876;DHT22;39789;53.216;5.624;2023-08-06T10:25:16;19.40;95.30
53876;DHT22;39789;53.216;5.624;2023-08-06T10:30:32;19.20;95.70
53876;DHT22;39789;53.216;5.624;2023-08-06T10:33:03;19.40;95.50
53876;DHT22;39789;53.216;5.624;2023-08-06T10:35:34;19.50;95.20
53876;DHT22;39789;53.216;5.624;2023-08-06T10:38:08;19.50;95.30
53876;DHT22;39789;53.216;5.624;2023-08-06T10:43:33;19.00;95.90
53876;DHT22;39789;53.216;5.624;2023-08-06T10:46:03;18.80;95.90
53876;DHT22;39789;53.216;5.624;2023-08-06T10:48:37;18.60;96.30
53876;DHT22;39789;53.216;5.624;2023-08-06T10:51:11;18.40;96.60
53876;DHT22;39789;53.216;5.624;2023-08-06T10:53:38;18.30;97.00
53876;DHT22;39789;53.216;5.624;2023-08-06T10:56:12;18.20;97.50
53876;DHT22;39789;53.216;5.624;2023-08-06T10:58:39;18.20;97.50
53876;DHT22;39789;53.216;5.624;2023-08-06T11:01:04;18.20;98.20
53876;DHT22;39789;53.216;5.624;2023-08-06T11:03:34;18.10;98.50
53876;DHT22;39789;53.216;5.624;2023-08-06T11:06:00;18.10;98.80
53876;DHT22;39789;53.216;5.624;2023-08-06T11:08:33;18.10;98.70
53876;DHT22;39789;53.216;5.624;2023-08-06T11:11:12;18.10;98.50
53876;DHT22;39789;53.216;5.624;2023-08-06T11:13:39;18.10;98.60
53876;DHT22;39789;53.216;5.624;2023-08-06T11:16:05;18.10;98.90
53876;DHT22;39789;53.216;5.624;2023-08-06T11:18:32;18.00;98.70
53876;DHT22;39789;53.216;5.624;2023-08-06T11:21:02;18.00;99.20
53876;DHT22;39789;53.216;5.624;2023-08-06T11:23:28;18.00;98.70
53876;DHT22;39789;53.216;5.624;2023-08-06T11:25:57;18.10;98.40
53876;DHT22;39789;53.216;5.624;2023-08-06T11:28:23;17.90;98.30
53876;DHT22;39789;53.216;5.624;2023-08-06T11:30:50;18.00;98.50
53876;DHT22;39789;53.216;5.624;2023-08-06T11:33:25;18.60;98.50
53876;DHT22;39789;53.216;5.624;2023-08-06T11:35:54;17.90;98.20
53876;DHT22;39789;53.216;5.624;2023-08-06T11:38:20;18.70;98.70
53876;DHT22;39789;53.216;5.624;2023-08-06T11:40:47;18.00;98.50
53876;DHT22;39789;53.216;5.624;2023-08-06T11:43:13;18.60;98.40
53876;DHT22;39789;53.216;5.624;2023-08-06T11:45:39;18.80;98.20
53876;DHT22;39789;53.216;5.624;2023-08-06T11:48:06;19.00;98.50
53876;DHT22;39789;53.216;5.624;2023-08-06T11:50:36;17.40;97.90
53876;DHT22;39789;53.216;5.624;2023-08-06T11:53:11;18.00;98.00
53876;DHT22;39789;53.216;5.624;2023-08-06T11:55:37;17.90;98.50
53876;DHT22;39789;53.216;5.624;2023-08-06T11:58:03;18.00;98.40
53876;DHT22;39789;53.216;5.624;2023-08-06T12:00:32;18.10;98.30
53876;DHT22;39789;53.216;5.624;2023-08-06T12:02:58;18.40;98.80
53876;DHT22;39789;53.216;5.624;2023-08-06T12:05:28;19.30;98.70
53876;DHT22;39789;53.216;5.624;2023-08-06T12:07:58;19.10;98.50
53876;DHT22;39789;53.216;5.624;2023-08-06T12:10:26;19.60;98.50
53876;DHT22;39789;53.216;5.624;2023-08-06T12:12:53;19.70;98.30
53876;DHT22;39789;53.216;5.624;2023-08-06T12:15:19;19.30;97.30
53876;DHT22;39789;53.216;5.624;2023-08-06T12:17:44;19.50;96.00
53876;DHT22;39789;53.216;5.624;2023-08-06T12:20:10;19.10;96.60
53876;DHT22;39789;53.216;5.624;2023-08-06T12:22:37;19.70;96.70
53876;DHT22;39789;53.216;5.624;2023-08-06T12:25:07;19.10;95.70
53876;DHT22;39789;53.216;5.624;2023-08-06T12:27:43;19.00;94.90
53876;DHT22;39789;53.216;5.624;2023-08-06T12:30:10;19.10;94.90
53876;DHT22;39789;53.216;5.624;2023-08-06T12:32:36;19.70;94.60
53876;DHT22;39789;53.216;5.624;2023-08-06T12:35:02;20.00;93.90
53876;DHT22;39789;53.216;5.624;2023-08-06T12:37:28;19.10;93.20
53876;DHT22;39789;53.216;5.624;2023-08-06T12:39:55;19.70;93.40
53876;DHT22;39789;53.216;5.624;2023-08-06T12:42:21;19.30;93.40
53876;DHT22;39789;53.216;5.624;2023-08-06T12:44:48;19.60;92.20
53876;DHT22;39789;53.216;5.624;2023-08-06T12:47:14;19.00;91.90
53876;DHT22;39789;53.216;5.624;2023-08-06T12:49:39;19.50;93.10
53876;DHT22;39789;53.216;5.624;2023-08-06T12:52:05;19.00;93.60
53876;DHT22;39789;53.216;5.624;2023-08-06T12:54:32;18.80;94.10
53876;DHT22;39789;53.216;5.624;2023-08-06T12:57:02;19.60;94.00
53876;DHT22;39789;53.216;5.624;2023-08-06T12:59:28;18.90;95.50
53876;DHT22;39789;53.216;5.624;2023-08-06T13:01:54;18.80;95.70
53876;DHT22;39789;53.216;5.624;2023-08-06T13:04:20;19.60;96.40
53876;DHT22;39789;53.216;5.624;2023-08-06T13:06:46;18.90;96.30
53876;DHT22;39789;53.216;5.624;2023-08-06T13:09:12;19.80;95.80
53876;DHT22;39789;53.216;5.624;2023-08-06T13:11:41;19.10;96.10
53876;DHT22;39789;53.216;5.624;2023-08-06T13:14:11;19.20;96.40
53876;DHT22;39789;53.216;5.624;2023-08-06T13:16:39;19.30;96.10
53876;DHT22;39789;53.216;5.624;2023-08-06T13:19:05;19.50;96.50
53876;DHT22;39789;53.216;5.624;2023-08-06T13:22:15;19.80;96.40
53876;DHT22;39789;53.216;5.624;2023-08-06T13:24:21;19.70;96.10
53876;DHT22;39789;53.216;5.624;2023-08-06T13:26:47;19.70;96.20
53876;DHT22;39789;53.216;5.624;2023-08-06T13:29:13;19.60;94.70
53876;DHT22;39789;53.216;5.624;2023-08-06T13:31:38;19.70;94.30
53876;DHT22;39789;53.216;5.624;2023-08-06T13:34:04;19.70;93.10
53876;DHT22;39789;53.216;5.624;2023-08-06T13:36:30;19.80;94.10
53876;DHT22;39789;53.216;5.624;2023-08-06T13:38:56;19.70;95.10
53876;DHT22;39789;53.216;5.624;2023-08-06T13:41:23;19.60;95.40
53876;DHT22;39789;53.216;5.624;2023-08-06T13:43:48;20.20;95.90
53876;DHT22;39789;53.216;5.624;2023-08-06T13:46:14;19.30;96.30
53876;DHT22;39789;53.216;5.624;2023-08-06T13:48:43;19.60;96.80
53876;DHT22;39789;53.216;5.624;2023-08-06T13:51:10;19.20;96.50
53876;DHT22;39789;53.216;5.624;2023-08-06T13:53:40;19.80;97.10
53876;DHT22;39789;53.216;5.624;2023-08-06T13:56:07;19.20;98.00
53876;DHT22;39789;53.216;5.624;2023-08-06T13:58:33;20.00;97.60
53876;DHT22;39789;53.216;5.624;2023-08-06T14:00:59;18.40;97.70
53876;DHT22;39789;53.216;5.624;2023-08-06T14:03:24;18.80;98.20
53876;DHT22;39789;53.216;5.624;2023-08-06T14:05:50;18.70;98.10
53876;DHT22;39789;53.216;5.624;2023-08-06T14:08:16;18.60;97.90
53876;DHT22;39789;53.216;5.624;2023-08-06T14:10:48;18.70;98.20
53876;DHT22;39789;53.216;5.624;2023-08-06T14:13:13;18.60;98.60
53876;DHT22;39789;53.216;5.624;2023-08-06T14:15:39;18.90;98.50
53876;DHT22;39789;53.216;5.624;2023-08-06T14:18:08;19.50;98.30
53876;DHT22;39789;53.216;5.624;2023-08-06T14:20:34;18.60;98.00
53876;DHT22;39789;53.216;5.624;2023-08-06T14:23:00;18.50;97.70
53876;DHT22;39789;53.216;5.624;2023-08-06T14:25:26;18.40;98.30
53876;DHT22;39789;53.216;5.624;2023-08-06T14:27:52;18.40;98.90
53876;DHT22;39789;53.216;5.624;2023-08-06T14:30:17;18.50;98.90
53876;DHT22;39789;53.216;5.624;2023-08-06T14:32:43;18.60;98.70
53876;DHT22;39789;53.216;5.624;2023-08-06T14:35:09;18.70;98.30
53876;DHT22;39789;53.216;5.624;2023-08-06T14:37:35;18.60;98.30
53876;DHT22;39789;53.216;5.624;2023-08-06T14:40:00;18.90;98.50
53876;DHT22;39789;53.216;5.624;2023-08-06T14:42:26;19.60;98.50
53876;DHT22;39789;53.216;5.624;2023-08-06T14:44:52;18.60;98.20
53876;DHT22;39789;53.216;5.624;2023-08-06T14:47:17;19.20;98.50
53876;DHT22;39789;53.216;5.624;2023-08-06T14:49:43;18.90;98.00
53876;DHT22;39789;53.216;5.624;2023-08-06T14:52:10;18.40;98.40
53876;DHT22;39789;53.216;5.624;2023-08-06T14:54:35;17.90;98.20
53876;DHT22;39789;53.216;5.624;2023-08-06T14:57:01;18.20;98.60
53876;DHT22;39789;53.216;5.624;2023-08-06T14:59:27;18.20;99.00
53876;DHT22;39789;53.216;5.624;2023-08-06T15:01:52;18.20;98.90
53876;DHT22;39789;53.216;5.624;2023-08-06T15:04:18;18.10;99.00
53876;DHT22;39789;53.216;5.624;2023-08-06T15:06:44;18.00;99.20
53876;DHT22;39789;53.216;5.624;2023-08-06T15:09:10;17.90;99.30
53876;DHT22;39789;53.216;5.624;2023-08-06T15:11:35;18.10;99.70
53876;DHT22;39789;53.216;5.624;2023-08-06T15:14:01;17.80;99.80
53876;DHT22;39789;53.216;5.624;2023-08-06T15:16:28;18.20;99.60
53876;DHT22;39789;53.216;5.624;2023-08-06T15:18:54;18.40;99.70
53876;DHT22;39789;53.216;5.624;2023-08-06T15:21:20;18.80;99.30
53876;DHT22;39789;53.216;5.624;2023-08-06T15:23:45;18.00;98.70
53876;DHT22;39789;53.216;5.624;2023-08-06T15:26:11;19.00;98.60
53876;DHT22;39789;53.216;5.624;2023-08-06T15:28:37;19.00;98.80
53876;DHT22;39789;53.216;5.624;2023-08-06T15:31:02;17.90;98.80
53876;DHT22;39789;53.216;5.624;2023-08-06T15:33:31;18.40;98.90
53876;DHT22;39789;53.216;5.624;2023-08-06T15:35:56;18.00;98.70